Time;durP1;ratioP1;P1;durP2;ratioP2;P2;SDS_P1;SDS_P2;PMS_P1;PMS_P2;Temp;Humidity;BMP_temperature;BMP_pressure;BME280_temperature;BME280_humidity;BME280_pressure;Samples;Min_cycle;Max_cycle;Signal;HPM_P1;HPM_P2
2023/03/14 00:02:08;;;;;;;12.60;6.80;;;;;;;9.78;79.93;98951.54;104701;1263;97996;-77
2023/03/14 00:04:55;;;;;;;12.90;7.30;;;;;;;9.76;79.67;98945.05;104917;1267;97950;-77
2023/03/14 00:07:41;;;;;;;11.10;6.80;;;;;;;9.74;79.94;98938.05;105129;1262;97869;-77
2023/03/14 00:10:27;;;;;;;13.70;8.00;;;;;;;9.71;79.77;98933.91;105096;1268;101346;-79
2023/03/14 00:13:13;;;;;;;15.70;7.60;;;;;;;9.69;79.59;98932.45;105118;1268;99118;-77
2023/03/14 00:16:07;;;;;;;14.80;7.40;;;;;;;9.68;79.76;98933.04;105104;1262;97924;-77
2023/03/14 00:18:52;;;;;;;13.00;7.50;;;;;;;9.65;79.71;98931.79;105085;1267;97888;-77
2023/03/14 00:21:38;;;;;;;18.10;8.00;;;;;;;9.63;79.84;98922.37;105114;1268;97993;-77
2023/03/14 00:24:23;;;;;;;15.30;7.60;;;;;;;9.60;79.70;98919.23;105097;1263;101370;-77
2023/03/14 00:27:09;;;;;;;16.60;8.00;;;;;;;9.58;79.88;98921.84;105021;1268;100613;-77
2023/03/14 00:29:54;;;;;;;15.50;8.30;;;;;;;9.55;80.06;98917.77;105207;1266;97954;-78
2023/03/14 00:32:40;;;;;;;14.30;7.00;;;;;;;9.53;79.87;98914.89;105462;1267;98751;-77
2023/03/14 00:35:27;;;;;;;15.90;6.80;;;;;;;9.51;79.81;98911.13;105087;1267;97839;-77
2023/03/14 00:38:13;;;;;;;15.60;7.40;;;;;;;9.47;79.71;98900.40;105168;1266;102111;-77
2023/03/14 00:40:58;;;;;;;17.70;7.50;;;;;;;9.46;79.67;98902.42;105132;1266;99097;-77
2023/03/14 00:43:45;;;;;;;14.10;6.90;;;;;;;9.44;79.73;98902.53;104991;1268;99259;-78
2023/03/14 00:46:30;;;;;;;13.10;7.10;;;;;;;9.41;79.68;98902.42;105119;1268;97966;-78
2023/03/14 00:49:16;;;;;;;17.00;7.40;;;;;;;9.38;79.68;98901.55;105158;1266;97989;-77
2023/03/14 00:52:02;;;;;;;12.30;6.50;;;;;;;9.37;79.45;98895.69;105230;1262;101373;-77
2023/03/14 00:54:48;;;;;;;12.10;6.90;;;;;;;9.36;79.56;98895.11;105097;1264;100308;-77
2023/03/14 00:57:34;;;;;;;11.80;5.90;;;;;;;9.33;79.53;98895.47;105076;1276;97975;-77
2023/03/14 01:00:19;;;;;;;11.40;6.70;;;;;;;9.32;79.35;98892.98;105139;1266;97971;-77
2023/03/14 01:03:06;;;;;;;12.30;6.60;;;;;;;9.31;79.23;98891.08;105144;1266;98606;-77
2023/03/14 01:05:51;;;;;;;11.70;6.70;;;;;;;9.30;79.13;98886.45;105133;1275;102939;-77
2023/03/14 01:08:37;;;;;;;16.40;6.40;;;;;;;9.28;79.11;98880.52;105131;1267;99219;-77
2023/03/14 01:11:32;;;;;;;13.70;6.80;;;;;;;9.26;79.25;98881.80;105156;1263;98383;-77
2023/03/14 01:14:17;;;;;;;16.60;8.00;;;;;;;9.25;79.09;98874.59;105168;1275;98021;-77
2023/03/14 01:17:03;;;;;;;13.50;7.40;;;;;;;9.23;79.08;98872.09;104988;1275;97995;-77
2023/03/14 01:19:48;;;;;;;15.90;7.30;;;;;;;9.21;79.11;98861.88;105034;1266;101995;-77
2023/03/14 01:22:35;;;;;;;16.40;7.00;;;;;;;9.21;78.92;98861.39;104919;1267;100499;-77
2023/03/14 01:25:21;;;;;;;12.40;7.20;;;;;;;9.20;78.88;98855.89;104835;1271;98616;-77
2023/03/14 01:28:07;;;;;;;17.70;7.50;;;;;;;9.18;78.85;98857.34;105005;1278;98101;-77
2023/03/14 01:30:54;;;;;;;15.30;7.60;;;;;;;9.18;78.77;98853.36;105100;1267;98492;-77
2023/03/14 01:33:40;;;;;;;14.10;7.30;;;;;;;9.17;78.83;98852.27;105119;1267;102423;-77
2023/03/14 01:36:27;;;;;;;14.90;7.10;;;;;;;9.16;78.67;98859.39;105507;1266;99643;-79
2023/03/14 01:39:13;;;;;;;16.40;7.60;;;;;;;9.14;78.71;98857.80;106408;1264;97899;-80
2023/03/14 01:42:00;;;;;;;12.60;6.70;;;;;;;9.15;78.67;98857.33;105850;1268;97884;-78
2023/03/14 01:45:01;;;;;;;13.40;7.10;;;;;;;9.15;78.47;98853.02;105614;1264;97877;-78
2023/03/14 01:47:46;;;;;;;11.30;7.10;;;;;;;9.14;78.36;98849.41;105560;1267;101355;-78
2023/03/14 01:50:32;;;;;;;19.30;8.80;;;;;;;9.13;78.48;98847.40;105618;1263;100019;-77
2023/03/14 01:53:21;;;;;;;11.50;7.40;;;;;;;9.11;78.46;98839.55;105673;1262;98947;-78
2023/03/14 01:56:09;;;;;;;12.30;7.20;;;;;;;9.10;78.53;98832.81;105659;1266;97913;-78
2023/03/14 01:58:54;;;;;;;14.50;8.00;;;;;;;9.08;78.72;98832.34;105475;1263;98598;-77
2023/03/14 02:01:45;;;;;;;14.70;7.30;;;;;;;9.07;78.77;98830.05;105337;1266;102012;-77
2023/03/14 02:04:33;;;;;;;13.50;7.50;;;;;;;9.04;78.81;98826.38;104988;1264;99094;-77
2023/03/14 02:07:39;;;;;;;15.60;7.50;;;;;;;9.02;78.69;98826.15;105146;1267;97951;-77
2023/03/14 02:10:35;;;;;;;13.50;7.60;;;;;;;8.98;78.64;98823.75;105136;1267;98051;-77
2023/03/14 02:13:22;;;;;;;;;;;;;;;8.95;78.62;98819.02;104933;1267;98642;-77
2023/03/14 02:16:31;;;;;;;15.20;7.60;;;;;;;8.92;78.54;98813.71;105734;1268;101667;-77
2023/03/14 02:20:07;;;;;;;12.20;8.00;;;;;;;8.88;78.59;98806.76;105274;1268;99079;-78
2023/03/14 02:22:59;;;;;;;15.90;7.50;;;;;;;8.85;78.36;98806.71;105510;1266;98663;-78
2023/03/14 02:26:00;;;;;;;14.80;7.50;;;;;;;8.82;78.49;98809.23;105281;1270;98050;-78
2023/03/14 02:28:46;;;;;;;13.00;6.80;;;;;;;8.80;78.73;98808.73;105043;1268;98419;-77
2023/03/14 02:31:32;;;;;;;13.60;7.50;;;;;;;8.78;78.57;98801.89;104986;1272;101378;-78
2023/03/14 02:34:18;;;;;;;13.30;7.20;;;;;;;8.76;78.64;98800.30;105222;1264;99085;-77
2023/03/14 02:37:05;;;;;;;13.40;7.90;;;;;;;8.76;78.72;98801.29;105147;1268;97979;-77
2023/03/14 02:39:51;;;;;;;12.80;7.60;;;;;;;8.74;78.80;98800.64;105155;1263;98013;-77
2023/03/14 02:42:36;;;;;;;13.70;7.40;;;;;;;8.73;78.84;98801.52;104994;1268;99807;-77
2023/03/14 02:45:22;;;;;;;16.10;7.70;;;;;;;8.73;78.75;98801.36;105211;1264;101402;-78
2023/03/14 02:48:20;;;;;;;15.90;6.90;;;;;;;8.71;78.91;98800.02;105280;1266;99224;-77
2023/03/14 02:51:07;;;;;;;14.40;8.20;;;;;;;8.69;78.74;98800.82;104975;1270;98042;-77
2023/03/14 02:53:54;;;;;;;11.60;6.90;;;;;;;8.67;78.95;98804.20;105233;1267;97875;-77
2023/03/14 02:56:39;;;;;;;13.80;7.30;;;;;;;8.64;78.92;98803.48;105223;1268;98636;-77
2023/03/14 02:59:25;;;;;;;14.00;7.20;;;;;;;8.61;78.61;98801.41;105147;1267;101334;-78
2023/03/14 03:02:16;;;;;;;12.70;7.80;;;;;;;8.59;78.57;98804.59;105028;1267;99332;-77
2023/03/14 03:05:02;;;;;;;16.60;8.10;;;;;;;8.57;78.62;98799.93;105128;1264;98815;-78
2023/03/14 03:07:48;;;;;;;15.70;8.10;;;;;;;8.55;78.39;98800.67;105240;1266;98518;-77
2023/03/14 03:10:34;;;;;;;14.70;8.30;;;;;;;8.53;78.51;98801.46;105217;1268;98493;-77
2023/03/14 03:13:20;;;;;;;14.20;8.50;;;;;;;8.50;78.57;98791.73;104988;1271;101400;-77
2023/03/14 03:16:08;;;;;;;13.20;7.30;;;;;;;8.47;78.66;98788.84;105278;1266;100310;-77
2023/03/14 03:18:54;;;;;;;13.20;7.80;;;;;;;8.44;78.79;98782.86;105200;1264;98955;-77
2023/03/14 03:21:40;;;;;;;13.30;6.80;;;;;;;8.41;78.80;98775.71;105053;1277;97997;-76
2023/03/14 03:24:26;;;;;;;11.90;7.40;;;;;;;8.38;78.71;98770.28;104984;1263;97966;-77
2023/03/14 03:27:13;;;;;;;13.60;7.70;;;;;;;8.34;78.93;98761.69;105268;1266;101392;-77
2023/03/14 03:29:59;;;;;;;12.20;6.60;;;;;;;8.32;78.66;98757.80;105296;1266;99177;-77
2023/03/14 03:32:46;;;;;;;13.70;7.00;;;;;;;8.28;78.83;98759.13;104899;1270;98057;-77
2023/03/14 03:35:32;;;;;;;13.60;7.30;;;;;;;8.26;78.94;98759.36;105035;1270;98057;-77
2023/03/14 03:38:19;;;;;;;12.20;7.30;;;;;;;8.24;79.00;98761.60;105182;1276;99662;-77
2023/03/14 03:41:07;;;;;;;13.20;7.80;;;;;;;8.21;78.98;98756.73;105332;1264;102598;-77
2023/03/14 03:43:54;;;;;;;13.50;7.00;;;;;;;8.19;79.19;98752.08;105140;1269;100435;-77
2023/03/14 03:46:40;;;;;;;13.00;6.90;;;;;;;8.18;79.01;98754.06;105185;1267;98069;-77
2023/03/14 03:49:31;;;;;;;10.10;6.40;;;;;;;8.17;78.92;98757.23;104910;1270;98290;-77
2023/03/14 03:52:17;;;;;;;13.20;6.70;;;;;;;8.15;79.10;98754.85;105087;1268;98418;-77
2023/03/14 03:55:03;;;;;;;12.20;7.00;;;;;;;8.12;79.14;98753.15;105255;1266;102657;-77
2023/03/14 03:57:48;;;;;;;11.00;6.40;;;;;;;8.09;78.94;98757.47;105080;1266;99069;-77
2023/03/14 04:00:34;;;;;;;12.70;7.00;;;;;;;8.07;78.92;98759.91;105237;1265;98924;-77
2023/03/14 04:03:20;;;;;;;12.10;6.90;;;;;;;8.04;79.08;98753.16;105153;1264;99356;-78
2023/03/14 04:06:09;;;;;;;12.00;7.40;;;;;;;8.04;79.14;98747.55;105143;1267;98506;-78
2023/03/14 04:08:57;;;;;;;15.00;6.60;;;;;;;8.01;79.02;98745.64;105082;1264;102714;-77
2023/03/14 04:11:57;;;;;;;16.10;7.40;;;;;;;7.99;79.04;98735.85;105020;1264;99446;-77
2023/03/14 04:14:52;;;;;;;12.20;7.10;;;;;;;7.98;79.16;98731.50;105162;1264;97996;-77
2023/03/14 04:17:41;;;;;;;10.60;6.50;;;;;;;7.98;79.23;98740.73;105148;1267;98577;-78
2023/03/14 04:20:27;;;;;;;12.40;6.40;;;;;;;7.96;79.16;98735.34;105211;1267;98736;-77
2023/03/14 04:23:13;;;;;;;11.60;6.20;;;;;;;7.95;79.02;98731.29;105220;1264;102664;-77
2023/03/14 04:25:59;;;;;;;11.70;6.10;;;;;;;7.94;79.06;98729.36;105209;1269;100220;-77
2023/03/14 04:28:44;;;;;;;12.10;6.10;;;;;;;7.96;79.27;98730.70;105008;1263;98419;-77
2023/03/14 04:31:30;;;;;;;9.90;5.50;;;;;;;7.98;79.47;98725.84;104996;1270;98033;-77
2023/03/14 04:34:16;;;;;;;12.20;6.00;;;;;;;8.00;79.30;98719.27;105221;1264;98402;-78
2023/03/14 04:37:07;;;;;;;10.90;5.70;;;;;;;8.02;79.33;98717.95;105312;1264;102595;-78
2023/03/14 04:39:59;;;;;;;10.80;5.40;;;;;;;8.06;79.16;98716.16;105176;1267;99130;-78
2023/03/14 04:42:47;;;;;;;13.50;5.90;;;;;;;8.10;79.16;98712.35;105217;1263;98990;-77
2023/03/14 04:45:33;;;;;;;11.70;6.30;;;;;;;8.14;79.09;98707.63;105042;1263;97984;-77
2023/03/14 04:48:21;;;;;;;10.20;5.70;;;;;;;8.19;78.92;98704.90;105239;1268;97752;-78
2023/03/14 04:51:07;;;;;;;10.70;5.40;;;;;;;8.22;78.99;98713.23;105415;1266;102640;-77
2023/03/14 04:53:54;;;;;;;9.80;5.30;;;;;;;8.26;78.93;98720.25;105250;1266;100352;-77
2023/03/14 04:56:40;;;;;;;8.90;5.10;;;;;;;8.28;78.83;98715.29;105156;1264;98131;-77
2023/03/14 04:59:27;;;;;;;8.60;5.50;;;;;;;8.29;78.83;98708.00;105084;1270;98922;-78
2023/03/14 05:02:15;;;;;;;10.80;5.70;;;;;;;8.32;78.70;98701.04;105191;1267;99751;-77
2023/03/14 05:05:14;;;;;;;11.10;5.90;;;;;;;8.34;78.72;98694.09;105194;1267;101420;-78
2023/03/14 05:08:05;;;;;;;10.40;5.30;;;;;;;8.37;78.59;98680.39;105436;1265;99978;-77
2023/03/14 05:10:58;;;;;;;13.30;5.20;;;;;;;8.40;78.63;98675.80;105322;1267;99298;-77
2023/03/14 05:14:04;;;;;;;9.60;4.90;;;;;;;8.42;78.68;98668.23;104876;1263;98132;-77
2023/03/14 05:17:08;;;;;;;9.60;4.90;;;;;;;8.45;78.70;98665.91;105303;1267;97984;-77
2023/03/14 05:20:08;;;;;;;9.20;4.60;;;;;;;8.47;78.45;98659.94;105290;1264;102002;-78
2023/03/14 05:23:23;;;;;;;10.60;5.90;;;;;;;8.49;78.20;98647.52;104882;1273;99133;-77
2023/03/14 05:26:38;;;;;;;11.10;6.10;;;;;;;8.52;78.15;98642.66;105204;1264;99551;-78
2023/03/14 05:29:44;;;;;;;9.30;5.60;;;;;;;8.55;78.37;98643.41;105238;1267;97954;-77
2023/03/14 05:32:55;;;;;;;8.30;5.30;;;;;;;8.58;78.42;98639.55;105195;1264;99208;-77
2023/03/14 05:36:08;;;;;;;10.70;5.50;;;;;;;8.62;78.36;98625.55;105109;1262;101391;-77
2023/03/14 05:39:32;;;;;;;8.30;5.50;;;;;;;8.64;78.06;98623.27;104886;1270;99108;-79
2023/03/14 05:42:36;;;;;;;12.70;5.50;;;;;;;8.67;78.14;98616.83;104809;1273;99029;-77
2023/03/14 05:45:51;;;;;;;9.90;5.30;;;;;;;8.69;77.96;98611.84;105266;1264;97916;-77
2023/03/14 05:48:56;;;;;;;10.80;5.00;;;;;;;8.72;77.83;98614.12;105270;1262;98741;-77
2023/03/14 05:52:01;;;;;;;9.40;5.20;;;;;;;8.74;77.82;98613.84;105129;1276;111238;-77
2023/03/14 05:55:05;;;;;;;7.00;4.60;;;;;;;8.76;77.95;98602.23;105124;1267;100537;-78
2023/03/14 05:58:10;;;;;;;10.50;5.10;;;;;;;8.80;77.93;98598.02;105305;1267;98405;-78
2023/03/14 06:01:19;;;;;;;8.10;4.70;;;;;;;8.85;77.59;98594.85;105461;1261;98845;-79
2023/03/14 06:04:24;;;;;;;12.90;5.10;;;;;;;8.91;77.35;98591.81;105730;1264;98437;-78
2023/03/14 06:07:14;;;;;;;9.90;4.60;;;;;;;8.97;77.56;98602.77;105432;1267;101367;-77
2023/03/14 06:10:00;;;;;;;10.60;5.00;;;;;;;9.03;77.64;98618.70;105096;1267;99331;-78
2023/03/14 06:12:45;;;;;;;10.70;4.70;;;;;;;9.10;77.57;98607.35;105191;1264;99246;-77
2023/03/14 06:15:32;;;;;;;10.00;4.90;;;;;;;9.18;77.44;98605.44;105217;1267;97882;-77
2023/03/14 06:18:19;;;;;;;7.70;4.60;;;;;;;9.27;77.58;98606.42;105180;1268;97897;-78
2023/03/14 06:21:05;;;;;;;9.40;5.00;;;;;;;9.36;77.39;98595.44;105316;1268;102081;-78
2023/03/14 06:23:50;;;;;;;11.90;5.00;;;;;;;9.47;77.09;98593.52;105169;1267;99084;-77
2023/03/14 06:26:36;;;;;;;10.10;5.60;;;;;;;9.54;76.89;98591.58;105096;1268;98985;-78
2023/03/14 06:29:22;;;;;;;11.30;5.20;;;;;;;9.60;76.75;98597.30;105163;1268;97949;-78
2023/03/14 06:32:08;;;;;;;8.70;5.10;;;;;;;9.69;76.59;98597.08;105304;1264;98877;-78
2023/03/14 06:34:57;;;;;;;10.30;5.70;;;;;;;9.75;76.39;98600.61;105156;1263;102556;-77
2023/03/14 06:37:43;;;;;;;10.80;5.10;;;;;;;9.79;76.16;98602.77;105681;1264;99075;-79
2023/03/14 06:40:29;;;;;;;9.10;4.60;;;;;;;9.84;76.39;98608.80;105090;1262;97896;-77
2023/03/14 06:43:38;;;;;;;11.70;5.60;;;;;;;9.91;76.42;98623.14;104914;1266;98038;-78
2023/03/14 06:46:26;;;;;;;8.90;5.10;;;;;;;9.99;76.32;98633.42;104870;1270;98561;-76
2023/03/14 06:49:11;;;;;;;7.10;4.30;;;;;;;10.08;76.08;98638.38;104758;1264;101926;-77
2023/03/14 06:51:57;;;;;;;7.70;4.10;;;;;;;10.16;75.94;98643.98;104841;1267;100346;-77
2023/03/14 06:54:43;;;;;;;7.10;4.00;;;;;;;10.23;75.69;98649.31;104954;1271;99091;-77
2023/03/14 06:57:29;;;;;;;6.70;3.90;;;;;;;10.28;75.38;98652.22;105081;1267;99359;-77
2023/03/14 07:00:16;;;;;;;5.70;3.80;;;;;;;10.33;75.05;98656.42;105150;1266;98017;-77
2023/03/14 07:03:02;;;;;;;6.40;4.40;;;;;;;10.38;74.88;98653.98;105228;1266;101350;-77
2023/03/14 07:05:51;;;;;;;7.90;4.30;;;;;;;10.41;74.69;98639.41;105206;1262;99187;-77
2023/03/14 07:08:37;;;;;;;7.80;4.30;;;;;;;10.45;74.91;98630.84;105846;1265;99014;-77
2023/03/14 07:11:24;;;;;;;8.90;4.00;;;;;;;10.50;74.87;98638.45;104974;1268;97983;-78
2023/03/14 07:14:11;;;;;;;10.90;4.40;;;;;;;10.57;75.13;98639.61;104989;1262;98539;-77
2023/03/14 07:16:56;;;;;;;8.80;4.70;;;;;;;10.65;75.76;98639.63;105149;1261;101360;-77
2023/03/14 07:19:42;;;;;;;9.10;4.50;;;;;;;10.75;75.95;98635.52;105175;1263;100804;-78
2023/03/14 07:22:28;;;;;;;7.90;4.10;;;;;;;10.87;75.70;98630.94;105253;1262;98483;-77
2023/03/14 07:25:15;;;;;;;8.20;4.50;;;;;;;11.01;75.69;98627.70;105265;1266;97999;-84
2023/03/14 07:28:01;;;;;;;6.90;4.30;;;;;;;11.17;75.73;98623.08;106296;1262;96118;-89
2023/03/14 07:30:49;;;;;;;8.50;3.90;;;;;;;11.29;74.97;98619.94;106277;1263;102562;-88
2023/03/14 07:33:39;;;;;;;7.20;3.70;;;;;;;11.40;74.63;98623.82;106229;1262;100418;-89
2023/03/14 07:36:32;;;;;;;11.10;4.40;;;;;;;11.49;74.82;98630.14;106055;1266;99296;-88
2023/03/14 07:39:18;;;;;;;6.10;3.90;;;;;;;11.56;74.26;98633.54;105870;1263;98060;-86
2023/03/14 07:42:07;;;;;;;6.70;4.30;;;;;;;11.60;73.77;98635.08;106375;1262;96463;-89
2023/03/14 07:45:03;;;;;;;8.60;4.50;;;;;;;11.64;73.66;98637.60;106272;1267;103808;-85
2023/03/14 07:47:49;;;;;;;10.00;4.70;;;;;;;11.66;73.57;98638.36;106263;1262;100537;-86
2023/03/14 07:53:40;;;;;;;6.30;4.30;;;;;;;11.73;73.79;98634.73;106104;1264;97979;-86
2023/03/14 07:56:26;;;;;;;6.70;3.50;;;;;;;11.78;73.69;98630.36;105358;1264;97958;-77
2023/03/14 07:59:12;;;;;;;8.20;3.70;;;;;;;11.83;73.26;98630.46;104994;1260;101494;-78
2023/03/14 08:01:58;;;;;;;8.70;4.10;;;;;;;11.88;73.26;98630.80;105313;1265;100333;-78
2023/03/14 08:04:44;;;;;;;11.60;4.70;;;;;;;11.91;72.95;98635.63;105248;1269;98005;-78
2023/03/14 08:07:30;;;;;;;7.00;3.90;;;;;;;11.94;72.69;98638.38;105994;1264;97919;-79
2023/03/14 08:10:22;;;;;;;11.10;4.20;;;;;;;11.96;72.66;98640.38;106268;1267;99710;-78
2023/03/14 08:13:09;;;;;;;6.60;3.80;;;;;;;12.00;72.83;98637.61;106033;1265;101350;-86
2023/03/14 08:15:55;;;;;;;14.30;4.40;;;;;;;12.04;72.80;98639.94;105891;1271;101593;-87
2023/03/14 08:18:41;;;;;;;10.70;4.10;;;;;;;12.10;72.85;98641.86;105882;1261;99917;-75
2023/03/14 08:21:27;;;;;;;8.20;4.30;;;;;;;12.17;72.83;98645.02;104835;1264;97967;-78
2023/03/14 08:24:13;;;;;;;8.40;4.20;;;;;;;12.24;72.76;98647.61;104922;1263;99887;-75
2023/03/14 08:26:58;;;;;;;6.00;4.20;;;;;;;12.31;72.45;98641.23;104852;1266;102093;-77
2023/03/14 08:29:44;;;;;;;5.50;4.00;;;;;;;12.41;72.39;98640.20;104794;1267;99098;-76
2023/03/14 08:32:29;;;;;;;9.60;4.30;;;;;;;12.54;72.73;98639.96;104836;1266;99102;-76
2023/03/14 08:35:15;;;;;;;9.00;4.40;;;;;;;12.66;73.17;98636.52;104793;1266;97966;-77
2023/03/14 08:38:01;;;;;;;13.10;4.60;;;;;;;12.76;72.50;98635.21;104752;1264;99155;-76
2023/03/14 08:40:46;;;;;;;7.10;4.80;;;;;;;12.83;71.35;98639.40;104895;1268;101346;-75
2023/03/14 08:43:32;;;;;;;8.70;4.20;;;;;;;12.88;71.49;98640.00;105078;1264;99244;-77
2023/03/14 08:46:18;;;;;;;7.20;4.20;;;;;;;12.96;71.54;98638.88;104891;1262;99002;-77
2023/03/14 08:49:03;;;;;;;7.00;4.00;;;;;;;13.05;71.43;98639.77;104932;1263;98508;-77
2023/03/14 08:51:49;;;;;;;8.60;4.00;;;;;;;13.14;70.60;98640.74;105025;1264;98499;-75
2023/03/14 08:54:37;;;;;;;7.10;4.30;;;;;;;13.19;69.42;98641.18;105251;1266;102091;-87
2023/03/14 08:57:30;;;;;;;4.80;3.50;;;;;;;13.22;69.53;98644.33;105294;1264;99171;-75
2023/03/14 09:00:16;;;;;;;8.70;3.90;;;;;;;13.23;68.77;98639.88;104861;1267;99199;-76
2023/03/14 09:03:01;;;;;;;7.10;3.90;;;;;;;13.22;68.09;98634.33;104761;1266;98586;-76
2023/03/14 09:05:47;;;;;;;6.80;4.00;;;;;;;13.22;68.61;98631.59;105716;1264;97140;-75
2023/03/14 09:08:34;;;;;;;6.70;4.10;;;;;;;13.23;68.49;98626.86;104845;1267;101423;-75
2023/03/14 09:11:20;;;;;;;11.00;4.30;;;;;;;13.22;68.64;98616.20;104910;1266;101752;-76
2023/03/14 09:14:06;;;;;;;7.70;4.10;;;;;;;13.21;68.25;98620.02;104790;1266;98030;-77
2023/03/14 09:16:51;;;;;;;8.50;4.00;;;;;;;13.19;67.86;98617.04;104803;1266;98062;-75
2023/03/14 09:19:37;;;;;;;7.60;4.30;;;;;;;13.18;67.73;98618.57;105015;1267;98426;-76
2023/03/14 09:22:22;;;;;;;10.10;3.90;;;;;;;13.16;67.58;98614.90;105180;1266;101390;-75
2023/03/14 09:25:09;;;;;;;9.00;4.60;;;;;;;13.14;67.39;98612.90;104867;1264;99651;-76
2023/03/14 09:27:55;;;;;;;7.00;4.70;;;;;;;13.13;67.22;98611.42;104986;1264;98993;-76
2023/03/14 09:30:40;;;;;;;9.40;4.50;;;;;;;13.10;67.17;98606.66;104815;1264;98060;-75
2023/03/14 09:33:26;;;;;;;10.20;4.70;;;;;;;13.08;67.38;98601.32;104772;1262;97960;-75
2023/03/14 09:36:13;;;;;;;10.20;4.70;;;;;;;13.06;67.64;98603.88;104802;1264;101412;-75
2023/03/14 09:38:58;;;;;;;9.20;4.80;;;;;;;13.06;67.78;98605.88;104906;1266;99161;-75
2023/03/14 09:41:47;;;;;;;7.50;4.40;;;;;;;13.06;67.72;98607.27;104774;1267;97963;-75
2023/03/14 09:44:37;;;;;;;8.00;4.30;;;;;;;13.06;67.39;98605.33;104782;1264;99144;-76
2023/03/14 09:47:24;;;;;;;6.80;4.20;;;;;;;13.06;67.09;98605.13;104773;1267;97903;-76
2023/03/14 09:50:14;;;;;;;6.90;4.30;;;;;;;13.06;67.54;98598.34;105005;1264;103002;-85
2023/03/14 09:53:09;;;;;;;8.70;4.70;;;;;;;13.06;67.49;98595.34;106192;1264;99288;-79
2023/03/14 09:55:57;;;;;;;10.00;4.80;;;;;;;13.03;67.19;98586.83;106409;1267;98886;-81
2023/03/14 09:58:49;;;;;;;8.80;4.60;;;;;;;13.00;67.18;98577.49;106343;1264;98592;-78
2023/03/14 10:01:35;;;;;;;9.20;4.90;;;;;;;12.99;67.90;98567.16;105182;1268;98497;-79
2023/03/14 10:04:25;;;;;;;8.60;4.90;;;;;;;13.00;67.88;98585.29;105609;1266;102681;-77
2023/03/14 10:07:19;;;;;;;7.30;4.00;;;;;;;13.04;68.20;98596.75;104956;1264;99394;-77
2023/03/14 10:10:15;;;;;;;10.90;5.00;;;;;;;13.13;68.31;98597.73;105241;1275;98612;-77
2023/03/14 10:13:18;;;;;;;9.90;4.40;;;;;;;13.24;67.84;98602.91;105187;1263;98026;-76
2023/03/14 10:16:06;;;;;;;12.50;5.00;;;;;;;13.36;67.90;98584.30;104821;1266;97906;-77
2023/03/14 10:18:51;;;;;;;10.00;5.10;;;;;;;13.46;68.09;98581.02;105009;1269;102641;-77
2023/03/14 10:21:53;;;;;;;9.00;4.80;;;;;;;13.51;67.76;98590.98;104822;1266;99068;-77
2023/03/14 10:24:46;;;;;;;7.20;4.70;;;;;;;13.53;67.37;98589.76;104669;1262;98082;-76
2023/03/14 10:27:34;;;;;;;11.60;5.00;;;;;;;13.58;67.70;98589.22;104897;1262;97974;-76
2023/03/14 10:30:43;;;;;;;10.10;5.10;;;;;;;13.68;67.97;98590.12;105153;1264;99651;-77
2023/03/14 10:33:32;;;;;;;11.90;5.30;;;;;;;13.82;67.24;98590.13;105179;1266;102538;-78
2023/03/14 10:36:26;;;;;;;9.80;5.40;;;;;;;13.90;66.24;98587.03;105141;1266;99839;-78
2023/03/14 10:39:17;;;;;;;10.70;5.40;;;;;;;13.91;66.16;98582.58;105277;1264;97975;-77
2023/03/14 10:42:20;;;;;;;9.70;5.10;;;;;;;13.93;65.71;98584.53;105257;1263;98607;-77
2023/03/14 10:45:38;;;;;;;10.60;5.10;;;;;;;13.93;65.72;98581.89;105004;1264;98511;-77
2023/03/14 10:48:34;;;;;;;7.70;4.80;;;;;;;13.97;65.68;98581.27;105210;1263;102317;-78
2023/03/14 10:51:25;;;;;;;12.20;5.70;;;;;;;13.98;65.37;98582.90;105253;1266;99152;-78
2023/03/14 10:54:21;;;;;;;11.00;5.30;;;;;;;14.00;65.61;98577.52;105188;1264;98405;-77
2023/03/14 10:57:07;;;;;;;7.90;5.20;;;;;;;14.01;65.43;98572.36;105239;1263;97997;-77
2023/03/14 10:59:56;;;;;;;10.10;5.40;;;;;;;14.05;65.82;98560.27;105045;1262;99724;-78
2023/03/14 11:03:00;;;;;;;12.90;6.50;;;;;;;14.09;65.82;98565.42;105225;1263;102236;-78
2023/03/14 11:06:08;;;;;;;9.40;5.20;;;;;;;14.11;65.92;98573.25;105413;1262;100373;-78
2023/03/14 11:09:12;;;;;;;10.40;5.10;;;;;;;14.10;66.52;98574.21;105196;1266;97908;-77
2023/03/14 11:12:13;;;;;;;9.90;5.40;;;;;;;14.10;66.38;98576.31;105195;1267;98876;-77
2023/03/14 11:15:03;;;;;;;;;;;;;;;14.03;65.80;98580.41;105326;1266;97186;-77
2023/03/14 11:17:49;;;;;;;12.20;6.40;;;;;;;13.97;66.15;98582.36;107397;1262;102025;-78
2023/03/14 11:20:53;;;;;;;11.10;6.00;;;;;;;13.92;66.36;98584.04;105321;1267;99324;-77
2023/03/14 11:23:58;;;;;;;10.80;5.40;;;;;;;13.88;66.74;98584.44;105563;1267;99583;-77
2023/03/14 11:27:03;;;;;;;9.20;5.30;;;;;;;13.85;67.38;98585.91;105278;1266;98694;-78
2023/03/14 11:30:04;;;;;;;10.40;5.70;;;;;;;13.82;67.32;98590.95;105300;1260;97825;-78
2023/03/14 11:33:09;;;;;;;11.80;5.80;;;;;;;13.79;67.60;98589.63;105361;1262;102459;-78
2023/03/14 11:36:10;;;;;;;11.30;6.00;;;;;;;13.77;68.22;98588.65;105265;1263;100916;-77
2023/03/14 11:38:58;;;;;;;11.80;6.40;;;;;;;13.76;68.67;98591.16;105407;1267;98048;-78
2023/03/14 11:41:48;;;;;;;12.40;6.70;;;;;;;13.75;68.63;98593.63;105014;1264;99139;-78
2023/03/14 11:44:37;;;;;;;10.50;7.20;;;;;;;13.74;68.78;98591.36;105254;1266;99080;-77
2023/03/14 11:47:31;;;;;;;12.30;5.90;;;;;;;13.71;68.99;98590.48;105312;1264;102205;-77
2023/03/14 11:50:18;;;;;;;15.10;6.70;;;;;;;13.71;69.21;98595.09;104980;1267;99247;-77
2023/03/14 11:53:06;;;;;;;7.90;5.40;;;;;;;13.69;69.30;98589.22;104923;1266;99501;-77
2023/03/14 11:55:53;;;;;;;11.60;5.70;;;;;;;13.69;69.72;98594.48;104836;1268;98439;-76
2023/03/14 11:58:45;;;;;;;11.60;6.00;;;;;;;13.69;69.77;98591.85;105249;1268;98509;-78
2023/03/14 12:01:48;;;;;;;10.50;5.90;;;;;;;13.67;69.86;98589.80;105321;1262;102875;-76
2023/03/14 12:04:52;;;;;;;9.70;5.30;;;;;;;13.66;69.86;98587.58;105429;1266;99619;-77
2023/03/14 12:07:59;;;;;;;9.90;5.30;;;;;;;13.65;69.49;98585.14;105348;1262;99001;-78
2023/03/14 12:11:17;;;;;;;9.10;5.10;;;;;;;13.63;69.48;98582.48;105201;1264;98573;-78
2023/03/14 12:14:17;;;;;;;13.60;6.10;;;;;;;13.59;69.21;98586.65;105147;1260;98014;-78
2023/03/14 12:17:33;;;;;;;13.40;6.40;;;;;;;13.55;69.32;98598.61;105293;1267;111288;-78
2023/03/14 12:20:21;;;;;;;10.30;5.90;;;;;;;13.50;69.30;98603.40;105255;1263;100827;-78
2023/03/14 12:23:11;;;;;;;11.50;5.60;;;;;;;13.45;69.46;98605.21;107940;1262;99037;-78
2023/03/14 12:26:13;;;;;;;10.10;5.50;;;;;;;13.36;69.34;98604.25;106466;1263;97994;-78
2023/03/14 12:28:59;;;;;;;11.30;5.80;;;;;;;13.27;69.48;98602.51;105065;1268;98864;-77
2023/03/14 12:32:06;;;;;;;12.20;6.10;;;;;;;13.20;70.20;98607.05;105051;1264;101391;-78
2023/03/14 12:34:52;;;;;;;9.80;5.40;;;;;;;13.12;70.51;98611.09;105164;1261;100046;-77
2023/03/14 12:37:47;;;;;;;12.20;6.20;;;;;;;13.03;71.13;98614.05;107151;1265;99973;-78
2023/03/14 12:40:37;;;;;;;15.80;8.00;;;;;;;12.94;71.85;98621.59;107519;1262;98053;-77
2023/03/14 12:43:33;;;;;;;10.50;5.50;;;;;;;12.88;72.71;98624.67;105874;1261;98009;-77
2023/03/14 12:46:26;;;;;;;8.90;5.50;;;;;;;12.81;72.80;98623.52;105747;1262;102564;-85
2023/03/14 12:49:12;;;;;;;10.60;6.30;;;;;;;12.70;73.17;98625.58;105489;1262;99116;-84
2023/03/14 12:52:13;;;;;;;12.20;5.50;;;;;;;12.61;73.86;98625.29;105674;1267;99169;-87
2023/03/14 12:55:17;;;;;;;8.60;5.00;;;;;;;12.51;74.10;98622.79;105769;1263;97865;-84
2023/03/14 12:58:25;;;;;;;7.90;5.10;;;;;;;12.41;74.75;98624.29;105927;1267;98079;-83
2023/03/14 13:04:17;;;;;;;8.90;4.80;;;;;;;12.24;76.34;98633.13;105943;1263;100436;-83
2023/03/14 13:07:03;;;;;;;10.00;5.10;;;;;;;12.18;76.39;98634.10;105843;1267;97961;-81
2023/03/14 13:10:00;;;;;;;8.40;5.10;;;;;;;12.14;76.71;98632.64;106113;1263;97881;-84
2023/03/14 13:12:51;;;;;;;9.50;5.70;;;;;;;12.09;77.16;98630.95;106044;1270;97094;-84
2023/03/14 13:15:43;;;;;;;12.00;5.40;;;;;;;12.06;77.22;98631.27;106372;1264;102627;-80
2023/03/14 13:18:34;;;;;;;12.30;6.30;;;;;;;12.03;77.93;98629.89;106616;1264;100111;-80